sensor_id;sensor_type;location;lat;lon;timestamp;temperature;humidity
14142;DHT22;7151;52.246;4.820;2023-05-14T00:02:17;20.30;68.60
14142;DHT22;7151;52.246;4.820;2023-05-14T00:04:43;20.20;68.70
14142;DHT22;7151;52.246;4.820;2023-05-14T00:07:11;20.20;68.70
14142;DHT22;7151;52.246;4.820;2023-05-14T00:09:37;20.20;68.80
14142;DHT22;7151;52.246;4.820;2023-05-14T00:12:03;20.10;68.80
14142;DHT22;7151;52.246;4.820;2023-05-14T00:14:28;20.10;69.00
14142;DHT22;7151;52.246;4.820;2023-05-14T00:16:54;20.10;69.10
14142;DHT22;7151;52.246;4.820;2023-05-14T00:19:19;20.00;69.00
14142;DHT22;7151;52.246;4.820;2023-05-14T00:21:46;20.00;69.10
14142;DHT22;7151;52.246;4.820;2023-05-14T00:24:12;20.00;69.30
14142;DHT22;7151;52.246;4.820;2023-05-14T00:26:37;20.00;69.40
14142;DHT22;7151;52.246;4.820;2023-05-14T00:29:03;19.90;69.40
14142;DHT22;7151;52.246;4.820;2023-05-14T00:31:28;19.90;69.60
14142;DHT22;7151;52.246;4.820;2023-05-14T00:33:54;19.90;69.70
14142;DHT22;7151;52.246;4.820;2023-05-14T00:36:19;19.80;69.80
14142;DHT22;7151;52.246;4.820;2023-05-14T00:38:45;19.80;69.90
14142;DHT22;7151;52.246;4.820;2023-05-14T00:41:11;19.80;70.00
14142;DHT22;7151;52.246;4.820;2023-05-14T00:43:36;19.70;70.10
14142;DHT22;7151;52.246;4.820;2023-05-14T00:46:02;19.70;70.20
14142;DHT22;7151;52.246;4.820;2023-05-14T00:48:28;19.70;70.30
14142;DHT22;7151;52.246;4.820;2023-05-14T00:50:54;19.60;70.40
14142;DHT22;7151;52.246;4.820;2023-05-14T00:53:20;19.60;70.40
14142;DHT22;7151;52.246;4.820;2023-05-14T00:55:46;19.60;70.60
14142;DHT22;7151;52.246;4.820;2023-05-14T00:58:13;19.60;70.70
14142;DHT22;7151;52.246;4.820;2023-05-14T01:00:39;19.50;70.70
14142;DHT22;7151;52.246;4.820;2023-05-14T01:03:06;19.50;70.90
14142;DHT22;7151;52.246;4.820;2023-05-14T01:08:31;19.40;71.20
14142;DHT22;7151;52.246;4.820;2023-05-14T01:11:21;19.40;71.10
14142;DHT22;7151;52.246;4.820;2023-05-14T01:14:22;19.40;71.20
14142;DHT22;7151;52.246;4.820;2023-05-14T01:16:51;19.40;71.20
14142;DHT22;7151;52.246;4.820;2023-05-14T01:19:39;19.30;71.20
14142;DHT22;7151;52.246;4.820;2023-05-14T01:22:05;19.30;71.30
14142;DHT22;7151;52.246;4.820;2023-05-14T01:24:31;19.30;71.30
14142;DHT22;7151;52.246;4.820;2023-05-14T01:27:02;19.20;71.40
14142;DHT22;7151;52.246;4.820;2023-05-14T01:29:32;19.20;71.60
14142;DHT22;7151;52.246;4.820;2023-05-14T01:32:00;19.20;71.60
14142;DHT22;7151;52.246;4.820;2023-05-14T01:34:27;19.20;71.80
14142;DHT22;7151;52.246;4.820;2023-05-14T01:36:55;19.20;71.90
14142;DHT22;7151;52.246;4.820;2023-05-14T01:39:22;19.10;71.90
14142;DHT22;7151;52.246;4.820;2023-05-14T01:41:49;19.10;72.00
14142;DHT22;7151;52.246;4.820;2023-05-14T01:44:15;19.10;72.10
14142;DHT22;7151;52.246;4.820;2023-05-14T01:46:41;19.10;72.20
14142;DHT22;7151;52.246;4.820;2023-05-14T01:49:07;19.10;72.30
14142;DHT22;7151;52.246;4.820;2023-05-14T01:51:32;19.00;72.30
14142;DHT22;7151;52.246;4.820;2023-05-14T01:53:58;19.00;72.40
14142;DHT22;7151;52.246;4.820;2023-05-14T01:56:24;19.00;72.50
14142;DHT22;7151;52.246;4.820;2023-05-14T01:58:50;19.00;72.60
14142;DHT22;7151;52.246;4.820;2023-05-14T02:01:16;18.90;72.70
14142;DHT22;7151;52.246;4.820;2023-05-14T02:03:41;18.90;72.80
14142;DHT22;7151;52.246;4.820;2023-05-14T02:06:07;18.90;72.90
14142;DHT22;7151;52.246;4.820;2023-05-14T02:08:32;18.80;72.90
14142;DHT22;7151;52.246;4.820;2023-05-14T02:10:58;18.80;73.00
14142;DHT22;7151;52.246;4.820;2023-05-14T02:13:24;18.80;73.10
14142;DHT22;7151;52.246;4.820;2023-05-14T02:15:50;18.80;73.20
14142;DHT22;7151;52.246;4.820;2023-05-14T02:18:16;18.80;73.40
14142;DHT22;7151;52.246;4.820;2023-05-14T02:20:41;18.80;73.50
14142;DHT22;7151;52.246;4.820;2023-05-14T02:23:07;18.70;73.50
14142;DHT22;7151;52.246;4.820;2023-05-14T02:25:32;18.70;73.60
14142;DHT22;7151;52.246;4.820;2023-05-14T02:27:58;18.70;73.70
14142;DHT22;7151;52.246;4.820;2023-05-14T02:30:24;18.70;73.80
14142;DHT22;7151;52.246;4.820;2023-05-14T02:32:49;18.70;73.90
14142;DHT22;7151;52.246;4.820;2023-05-14T02:35:15;18.70;74.00
14142;DHT22;7151;52.246;4.820;2023-05-14T02:37:41;18.60;74.00
14142;DHT22;7151;52.246;4.820;2023-05-14T02:40:07;18.60;74.00
14142;DHT22;7151;52.246;4.820;2023-05-14T02:42:34;18.60;74.10
14142;DHT22;7151;52.246;4.820;2023-05-14T02:44:59;18.60;74.20
14142;DHT22;7151;52.246;4.820;2023-05-14T02:47:25;18.50;74.30
14142;DHT22;7151;52.246;4.820;2023-05-14T02:49:50;18.50;74.30
14142;DHT22;7151;52.246;4.820;2023-05-14T02:52:16;18.50;74.40
14142;DHT22;7151;52.246;4.820;2023-05-14T02:54:42;18.50;74.60
14142;DHT22;7151;52.246;4.820;2023-05-14T02:57:07;18.50;74.60
14142;DHT22;7151;52.246;4.820;2023-05-14T02:59:33;18.40;74.60
14142;DHT22;7151;52.246;4.820;2023-05-14T03:01:58;18.40;74.80
14142;DHT22;7151;52.246;4.820;2023-05-14T03:04:24;18.40;74.90
14142;DHT22;7151;52.246;4.820;2023-05-14T03:06:49;18.40;75.00
14142;DHT22;7151;52.246;4.820;2023-05-14T03:09:15;18.40;75.20
14142;DHT22;7151;52.246;4.820;2023-05-14T03:11:41;18.40;75.20
14142;DHT22;7151;52.246;4.820;2023-05-14T03:14:06;18.30;75.30
14142;DHT22;7151;52.246;4.820;2023-05-14T03:16:32;18.30;75.30
14142;DHT22;7151;52.246;4.820;2023-05-14T03:18:57;18.30;76.10
14142;DHT22;7151;52.246;4.820;2023-05-14T03:21:23;18.30;75.60
14142;DHT22;7151;52.246;4.820;2023-05-14T03:23:48;18.30;75.60
14142;DHT22;7151;52.246;4.820;2023-05-14T03:26:14;18.30;75.80
14142;DHT22;7151;52.246;4.820;2023-05-14T03:28:39;18.30;75.80
14142;DHT22;7151;52.246;4.820;2023-05-14T03:31:05;18.30;75.90
14142;DHT22;7151;52.246;4.820;2023-05-14T03:33:31;18.20;76.00
14142;DHT22;7151;52.246;4.820;2023-05-14T03:35:56;18.20;76.00
14142;DHT22;7151;52.246;4.820;2023-05-14T03:38:22;18.20;76.00
14142;DHT22;7151;52.246;4.820;2023-05-14T03:40:47;18.20;76.20
14142;DHT22;7151;52.246;4.820;2023-05-14T03:43:13;18.20;76.30
14142;DHT22;7151;52.246;4.820;2023-05-14T03:45:39;18.20;76.30
14142;DHT22;7151;52.246;4.820;2023-05-14T03:48:05;18.10;76.30
14142;DHT22;7151;52.246;4.820;2023-05-14T03:50:31;18.10;76.50
14142;DHT22;7151;52.246;4.820;2023-05-14T03:52:56;18.10;76.60
14142;DHT22;7151;52.246;4.820;2023-05-14T03:55:22;18.10;76.60
14142;DHT22;7151;52.246;4.820;2023-05-14T03:57:47;18.10;76.80
14142;DHT22;7151;52.246;4.820;2023-05-14T04:00:13;18.10;76.90
14142;DHT22;7151;52.246;4.820;2023-05-14T04:02:39;18.10;76.90
14142;DHT22;7151;52.246;4.820;2023-05-14T04:05:05;18.00;77.00
14142;DHT22;7151;52.246;4.820;2023-05-14T04:07:31;18.00;77.10
14142;DHT22;7151;52.246;4.820;2023-05-14T04:09:56;18.00;77.20
14142;DHT22;7151;52.246;4.820;2023-05-14T04:12:22;18.00;77.30
14142;DHT22;7151;52.246;4.820;2023-05-14T04:14:47;18.00;77.40
14142;DHT22;7151;52.246;4.820;2023-05-14T04:17:13;18.00;77.50
14142;DHT22;7151;52.246;4.820;2023-05-14T04:19:39;18.00;77.70
14142;DHT22;7151;52.246;4.820;2023-05-14T04:22:05;18.00;77.80
14142;DHT22;7151;52.246;4.820;2023-05-14T04:24:30;18.00;77.90
14142;DHT22;7151;52.246;4.820;2023-05-14T04:26:56;18.00;78.10
14142;DHT22;7151;52.246;4.820;2023-05-14T04:29:22;18.00;78.10
14142;DHT22;7151;52.246;4.820;2023-05-14T04:31:48;18.00;78.30
14142;DHT22;7151;52.246;4.820;2023-05-14T04:34:14;18.00;78.40
14142;DHT22;7151;52.246;4.820;2023-05-14T04:36:39;18.00;78.40
14142;DHT22;7151;52.246;4.820;2023-05-14T04:39:05;17.90;78.60
14142;DHT22;7151;52.246;4.820;2023-05-14T04:41:31;17.90;78.70
14142;DHT22;7151;52.246;4.820;2023-05-14T04:43:59;18.00;78.90
14142;DHT22;7151;52.246;4.820;2023-05-14T04:46:25;17.90;79.00
14142;DHT22;7151;52.246;4.820;2023-05-14T04:48:51;17.90;79.00
14142;DHT22;7151;52.246;4.820;2023-05-14T04:51:16;17.90;79.20
14142;DHT22;7151;52.246;4.820;2023-05-14T04:53:42;18.00;79.30
14142;DHT22;7151;52.246;4.820;2023-05-14T04:56:08;18.00;79.50
14142;DHT22;7151;52.246;4.820;2023-05-14T04:58:34;17.90;79.50
14142;DHT22;7151;52.246;4.820;2023-05-14T05:01:00;18.00;79.60
14142;DHT22;7151;52.246;4.820;2023-05-14T05:03:27;18.00;79.80
14142;DHT22;7151;52.246;4.820;2023-05-14T05:05:52;18.00;79.90
14142;DHT22;7151;52.246;4.820;2023-05-14T05:08:18;17.90;79.90
14142;DHT22;7151;52.246;4.820;2023-05-14T05:10:43;17.90;80.00
14142;DHT22;7151;52.246;4.820;2023-05-14T05:13:09;17.90;80.10
14142;DHT22;7151;52.246;4.820;2023-05-14T05:15:34;18.00;80.30
14142;DHT22;7151;52.246;4.820;2023-05-14T05:18:00;18.00;80.40
14142;DHT22;7151;52.246;4.820;2023-05-14T05:20:25;18.00;80.40
14142;DHT22;7151;52.246;4.820;2023-05-14T05:22:52;17.90;80.50
14142;DHT22;7151;52.246;4.820;2023-05-14T05:25:18;18.00;80.70
14142;DHT22;7151;52.246;4.820;2023-05-14T05:27:43;18.00;80.80
14142;DHT22;7151;52.246;4.820;2023-05-14T05:30:10;18.00;80.90
14142;DHT22;7151;52.246;4.820;2023-05-14T05:32:36;18.00;81.00
14142;DHT22;7151;52.246;4.820;2023-05-14T05:35:02;18.00;81.20
14142;DHT22;7151;52.246;4.820;2023-05-14T05:37:27;18.00;81.30
14142;DHT22;7151;52.246;4.820;2023-05-14T05:39:53;18.10;81.30
14142;DHT22;7151;52.246;4.820;2023-05-14T05:42:18;18.00;81.30
14142;DHT22;7151;52.246;4.820;2023-05-14T05:44:44;18.00;81.30
14142;DHT22;7151;52.246;4.820;2023-05-14T05:47:09;18.00;81.50
14142;DHT22;7151;52.246;4.820;2023-05-14T05:49:35;18.00;81.50
14142;DHT22;7151;52.246;4.820;2023-05-14T05:52:02;18.00;81.60
14142;DHT22;7151;52.246;4.820;2023-05-14T05:54:29;18.10;81.80
14142;DHT22;7151;52.246;4.820;2023-05-14T05:56:56;18.00;81.90
14142;DHT22;7151;52.246;4.820;2023-05-14T05:59:23;18.10;82.10
14142;DHT22;7151;52.246;4.820;2023-05-14T06:01:49;18.10;82.20
14142;DHT22;7151;52.246;4.820;2023-05-14T06:04:14;18.10;82.30
14142;DHT22;7151;52.246;4.820;2023-05-14T06:06:40;18.20;82.40
14142;DHT22;7151;52.246;4.820;2023-05-14T06:09:06;18.20;82.50
14142;DHT22;7151;52.246;4.820;2023-05-14T06:11:33;18.20;82.50
14142;DHT22;7151;52.246;4.820;2023-05-14T06:13:59;18.20;82.70
14142;DHT22;7151;52.246;4.820;2023-05-14T06:16:24;18.30;82.80
14142;DHT22;7151;52.246;4.820;2023-05-14T06:18:50;18.30;82.80
14142;DHT22;7151;52.246;4.820;2023-05-14T06:21:17;18.30;82.90
14142;DHT22;7151;52.246;4.820;2023-05-14T06:23:43;18.30;82.90
14142;DHT22;7151;52.246;4.820;2023-05-14T06:26:08;18.40;82.90
14142;DHT22;7151;52.246;4.820;2023-05-14T06:28:34;18.40;82.90
14142;DHT22;7151;52.246;4.820;2023-05-14T06:31:00;18.40;82.90
14142;DHT22;7151;52.246;4.820;2023-05-14T06:33:25;18.40;82.90
14142;DHT22;7151;52.246;4.820;2023-05-14T06:35:58;18.50;83.10
14142;DHT22;7151;52.246;4.820;2023-05-14T06:38:25;18.50;83.10
14142;DHT22;7151;52.246;4.820;2023-05-14T06:40:50;18.50;83.20
14142;DHT22;7151;52.246;4.820;2023-05-14T06:43:17;18.60;83.30
14142;DHT22;7151;52.246;4.820;2023-05-14T06:45:43;18.60;83.30
14142;DHT22;7151;52.246;4.820;2023-05-14T06:48:08;18.60;83.30
14142;DHT22;7151;52.246;4.820;2023-05-14T06:50:34;18.60;83.40
14142;DHT22;7151;52.246;4.820;2023-05-14T06:53:00;18.70;83.50
14142;DHT22;7151;52.246;4.820;2023-05-14T06:55:25;18.70;83.60
14142;DHT22;7151;52.246;4.820;2023-05-14T06:57:51;18.80;83.60
14142;DHT22;7151;52.246;4.820;2023-05-14T07:00:17;18.80;83.50
14142;DHT22;7151;52.246;4.820;2023-05-14T07:02:43;18.80;83.50
14142;DHT22;7151;52.246;4.820;2023-05-14T07:05:09;18.80;83.50
14142;DHT22;7151;52.246;4.820;2023-05-14T07:07:35;18.90;83.50
14142;DHT22;7151;52.246;4.820;2023-05-14T07:10:00;18.90;83.40
14142;DHT22;7151;52.246;4.820;2023-05-14T07:12:26;18.90;83.40
14142;DHT22;7151;52.246;4.820;2023-05-14T07:14:52;18.90;83.40
14142;DHT22;7151;52.246;4.820;2023-05-14T07:17:17;18.90;83.30
14142;DHT22;7151;52.246;4.820;2023-05-14T07:19:43;19.00;83.40
14142;DHT22;7151;52.246;4.820;2023-05-14T07:22:08;19.00;83.40
14142;DHT22;7151;52.246;4.820;2023-05-14T07:24:34;19.00;83.40
14142;DHT22;7151;52.246;4.820;2023-05-14T07:26:59;19.00;83.30
14142;DHT22;7151;52.246;4.820;2023-05-14T07:29:26;19.10;83.40
14142;DHT22;7151;52.246;4.820;2023-05-14T07:31:51;19.10;83.40
14142;DHT22;7151;52.246;4.820;2023-05-14T07:34:17;19.10;83.40
14142;DHT22;7151;52.246;4.820;2023-05-14T07:36:43;19.10;83.40
14142;DHT22;7151;52.246;4.820;2023-05-14T07:39:09;19.20;83.50
14142;DHT22;7151;52.246;4.820;2023-05-14T07:41:35;19.20;83.60
14142;DHT22;7151;52.246;4.820;2023-05-14T07:44:00;19.20;83.70
14142;DHT22;7151;52.246;4.820;2023-05-14T07:46:26;19.20;83.80
14142;DHT22;7151;52.246;4.820;2023-05-14T07:48:51;19.30;83.90
14142;DHT22;7151;52.246;4.820;2023-05-14T07:51:17;19.30;83.80
14142;DHT22;7151;52.246;4.820;2023-05-14T07:53:42;19.30;83.70
14142;DHT22;7151;52.246;4.820;2023-05-14T07:56:08;19.30;83.60
14142;DHT22;7151;52.246;4.820;2023-05-14T07:58:34;19.40;83.60
14142;DHT22;7151;52.246;4.820;2023-05-14T08:01:00;19.40;83.70
14142;DHT22;7151;52.246;4.820;2023-05-14T08:03:28;19.40;83.70
14142;DHT22;7151;52.246;4.820;2023-05-14T08:05:53;19.50;83.60
14142;DHT22;7151;52.246;4.820;2023-05-14T08:08:19;19.50;83.60
14142;DHT22;7151;52.246;4.820;2023-05-14T08:10:44;19.50;83.60
14142;DHT22;7151;52.246;4.820;2023-05-14T08:13:10;19.50;83.60
14142;DHT22;7151;52.246;4.820;2023-05-14T08:15:36;19.60;83.40
14142;DHT22;7151;52.246;4.820;2023-05-14T08:18:01;19.60;83.40
14142;DHT22;7151;52.246;4.820;2023-05-14T08:20:29;19.60;83.50
14142;DHT22;7151;52.246;4.820;2023-05-14T08:22:55;19.60;83.50
14142;DHT22;7151;52.246;4.820;2023-05-14T08:25:22;19.70;84.40
14142;DHT22;7151;52.246;4.820;2023-05-14T08:27:48;19.70;83.70
14142;DHT22;7151;52.246;4.820;2023-05-14T08:30:14;19.70;83.40
14142;DHT22;7151;52.246;4.820;2023-05-14T08:32:39;19.80;83.40
14142;DHT22;7151;52.246;4.820;2023-05-14T08:35:05;19.80;83.20
14142;DHT22;7151;52.246;4.820;2023-05-14T08:37:31;19.80;83.00
14142;DHT22;7151;52.246;4.820;2023-05-14T08:39:57;19.80;82.80
14142;DHT22;7151;52.246;4.820;2023-05-14T08:42:23;19.90;82.80
14142;DHT22;7151;52.246;4.820;2023-05-14T08:44:56;19.90;82.60
14142;DHT22;7151;52.246;4.820;2023-05-14T08:47:24;19.90;82.30
14142;DHT22;7151;52.246;4.820;2023-05-14T08:50:04;20.00;82.30
14142;DHT22;7151;52.246;4.820;2023-05-14T08:52:31;20.00;81.90
14142;DHT22;7151;52.246;4.820;2023-05-14T08:55:02;20.00;81.90
14142;DHT22;7151;52.246;4.820;2023-05-14T08:57:29;20.10;82.00
14142;DHT22;7151;52.246;4.820;2023-05-14T08:59:56;20.10;81.80
14142;DHT22;7151;52.246;4.820;2023-05-14T09:02:29;20.10;81.70
14142;DHT22;7151;52.246;4.820;2023-05-14T09:04:57;20.20;81.50
14142;DHT22;7151;52.246;4.820;2023-05-14T09:07:23;20.20;81.30
14142;DHT22;7151;52.246;4.820;2023-05-14T09:09:49;20.20;81.10
14142;DHT22;7151;52.246;4.820;2023-05-14T09:12:15;20.30;81.00
14142;DHT22;7151;52.246;4.820;2023-05-14T09:14:41;20.30;80.90
14142;DHT22;7151;52.246;4.820;2023-05-14T09:17:07;20.30;81.10
14142;DHT22;7151;52.246;4.820;2023-05-14T09:19:33;20.40;81.30
14142;DHT22;7151;52.246;4.820;2023-05-14T09:21:58;20.40;81.00
14142;DHT22;7151;52.246;4.820;2023-05-14T09:24:25;20.50;81.10
14142;DHT22;7151;52.246;4.820;2023-05-14T09:26:54;20.50;81.10
14142;DHT22;7151;52.246;4.820;2023-05-14T09:29:22;20.60;81.00
14142;DHT22;7151;52.246;4.820;2023-05-14T09:31:49;20.60;80.90
14142;DHT22;7151;52.246;4.820;2023-05-14T09:34:32;20.70;80.70
14142;DHT22;7151;52.246;4.820;2023-05-14T09:37:08;20.70;80.40
14142;DHT22;7151;52.246;4.820;2023-05-14T09:39:35;20.80;80.30
14142;DHT22;7151;52.246;4.820;2023-05-14T09:42:03;20.80;80.10
14142;DHT22;7151;52.246;4.820;2023-05-14T09:44:29;20.90;80.00
14142;DHT22;7151;52.246;4.820;2023-05-14T09:46:55;20.90;80.00
14142;DHT22;7151;52.246;4.820;2023-05-14T09:49:21;21.00;80.20
14142;DHT22;7151;52.246;4.820;2023-05-14T09:51:48;21.00;80.20
14142;DHT22;7151;52.246;4.820;2023-05-14T09:54:13;21.00;79.90
14142;DHT22;7151;52.246;4.820;2023-05-14T09:56:39;21.20;79.80
14142;DHT22;7151;52.246;4.820;2023-05-14T09:59:05;21.20;79.30
14142;DHT22;7151;52.246;4.820;2023-05-14T10:01:31;21.20;79.00
14142;DHT22;7151;52.246;4.820;2023-05-14T10:03:57;21.30;79.10
14142;DHT22;7151;52.246;4.820;2023-05-14T10:06:27;21.40;79.20
14142;DHT22;7151;52.246;4.820;2023-05-14T10:08:55;21.40;79.00
14142;DHT22;7151;52.246;4.820;2023-05-14T10:11:23;21.50;78.80
14142;DHT22;7151;52.246;4.820;2023-05-14T10:16:33;21.60;78.70
14142;DHT22;7151;52.246;4.820;2023-05-14T10:19:11;21.70;78.70
14142;DHT22;7151;52.246;4.820;2023-05-14T10:21:39;21.80;78.70
14142;DHT22;7151;52.246;4.820;2023-05-14T10:24:06;21.80;78.50
14142;DHT22;7151;52.246;4.820;2023-05-14T10:26:35;21.90;78.30
14142;DHT22;7151;52.246;4.820;2023-05-14T10:29:05;21.90;78.00
14142;DHT22;7151;52.246;4.820;2023-05-14T10:31:51;22.00;78.10
14142;DHT22;7151;52.246;4.820;2023-05-14T10:34:38;22.10;78.30
14142;DHT22;7151;52.246;4.820;2023-05-14T10:37:09;22.20;78.40
14142;DHT22;7151;52.246;4.820;2023-05-14T10:39:52;22.20;78.30
14142;DHT22;7151;52.246;4.820;2023-05-14T10:42:26;22.30;77.40
14142;DHT22;7151;52.246;4.820;2023-05-14T10:45:01;22.30;77.30
14142;DHT22;7151;52.246;4.820;2023-05-14T10:47:27;22.40;77.30
14142;DHT22;7151;52.246;4.820;2023-05-14T10:49:55;22.50;77.50
14142;DHT22;7151;52.246;4.820;2023-05-14T10:52:22;22.50;77.30
14142;DHT22;7151;52.246;4.820;2023-05-14T10:57:17;22.60;77.10
14142;DHT22;7151;52.246;4.820;2023-05-14T10:59:43;22.70;77.40
14142;DHT22;7151;52.246;4.820;2023-05-14T11:02:33;22.70;75.90
14142;DHT22;7151;52.246;4.820;2023-05-14T11:05:17;22.80;75.10
14142;DHT22;7151;52.246;4.820;2023-05-14T11:07:47;22.80;75.30
14142;DHT22;7151;52.246;4.820;2023-05-14T11:10:15;22.90;75.20
14142;DHT22;7151;52.246;4.820;2023-05-14T11:12:43;22.90;75.00
14142;DHT22;7151;52.246;4.820;2023-05-14T11:15:10;23.00;75.30
14142;DHT22;7151;52.246;4.820;2023-05-14T11:17:38;23.00;75.40
14142;DHT22;7151;52.246;4.820;2023-05-14T11:20:05;23.10;75.10
14142;DHT22;7151;52.246;4.820;2023-05-14T11:22:32;23.10;75.10
14142;DHT22;7151;52.246;4.820;2023-05-14T11:24:57;23.20;75.10
14142;DHT22;7151;52.246;4.820;2023-05-14T11:27:23;23.30;74.80
14142;DHT22;7151;52.246;4.820;2023-05-14T11:29:49;23.30;74.60
14142;DHT22;7151;52.246;4.820;2023-05-14T11:32:16;23.40;74.50
14142;DHT22;7151;52.246;4.820;2023-05-14T11:34:43;23.40;74.40
14142;DHT22;7151;52.246;4.820;2023-05-14T11:37:09;23.50;74.30
14142;DHT22;7151;52.246;4.820;2023-05-14T11:39:37;23.60;74.30
14142;DHT22;7151;52.246;4.820;2023-05-14T11:42:04;23.70;74.10
14142;DHT22;7151;52.246;4.820;2023-05-14T11:44:31;23.70;73.70
14142;DHT22;7151;52.246;4.820;2023-05-14T11:46:57;23.80;73.60
14142;DHT22;7151;52.246;4.820;2023-05-14T11:49:24;23.90;73.50
14142;DHT22;7151;52.246;4.820;2023-05-14T11:52:02;23.90;73.20
14142;DHT22;7151;52.246;4.820;2023-05-14T11:54:29;23.90;72.90
14142;DHT22;7151;52.246;4.820;2023-05-14T11:56:55;24.00;72.80
14142;DHT22;7151;52.246;4.820;2023-05-14T11:59:24;24.10;72.50
14142;DHT22;7151;52.246;4.820;2023-05-14T12:01:50;24.10;72.30
14142;DHT22;7151;52.246;4.820;2023-05-14T12:04:17;24.10;71.80
14142;DHT22;7151;52.246;4.820;2023-05-14T12:06:49;24.10;71.50
14142;DHT22;7151;52.246;4.820;2023-05-14T12:09:19;24.20;71.70
14142;DHT22;7151;52.246;4.820;2023-05-14T12:11:46;24.30;71.40
14142;DHT22;7151;52.246;4.820;2023-05-14T12:14:15;24.30;71.20
14142;DHT22;7151;52.246;4.820;2023-05-14T12:16:42;24.30;70.90
14142;DHT22;7151;52.246;4.820;2023-05-14T12:19:09;24.40;71.00
14142;DHT22;7151;52.246;4.820;2023-05-14T12:21:36;24.40;70.70
14142;DHT22;7151;52.246;4.820;2023-05-14T12:24:02;24.50;70.40
14142;DHT22;7151;52.246;4.820;2023-05-14T12:26:32;24.50;70.60
14142;DHT22;7151;52.246;4.820;2023-05-14T12:29:02;24.60;70.50
14142;DHT22;7151;52.246;4.820;2023-05-14T12:31:32;24.70;70.30
14142;DHT22;7151;52.246;4.820;2023-05-14T12:33:58;24.70;69.90
14142;DHT22;7151;52.246;4.820;2023-05-14T12:36:23;24.70;69.60
14142;DHT22;7151;52.246;4.820;2023-05-14T12:38:50;24.70;69.50
14142;DHT22;7151;52.246;4.820;2023-05-14T12:41:21;24.80;69.20
14142;DHT22;7151;52.246;4.820;2023-05-14T12:43:47;24.80;70.10
14142;DHT22;7151;52.246;4.820;2023-05-14T12:46:13;24.80;69.20
14142;DHT22;7151;52.246;4.820;2023-05-14T12:48:39;24.90;69.20
14142;DHT22;7151;52.246;4.820;2023-05-14T12:51:04;24.90;69.00
14142;DHT22;7151;52.246;4.820;2023-05-14T12:53:30;25.00;68.60
14142;DHT22;7151;52.246;4.820;2023-05-14T12:55:56;25.00;68.00
14142;DHT22;7151;52.246;4.820;2023-05-14T12:58:22;25.00;68.00
14142;DHT22;7151;52.246;4.820;2023-05-14T13:00:47;25.10;68.00
14142;DHT22;7151;52.246;4.820;2023-05-14T13:03:13;25.10;67.80
14142;DHT22;7151;52.246;4.820;2023-05-14T13:05:38;25.10;67.20
14142;DHT22;7151;52.246;4.820;2023-05-14T13:08:04;25.20;67.00
14142;DHT22;7151;52.246;4.820;2023-05-14T13:10:29;25.20;66.70
14142;DHT22;7151;52.246;4.820;2023-05-14T13:12:55;25.30;66.50
14142;DHT22;7151;52.246;4.820;2023-05-14T13:15:21;25.30;66.60
14142;DHT22;7151;52.246;4.820;2023-05-14T13:17:47;25.40;66.30
14142;DHT22;7151;52.246;4.820;2023-05-14T13:20:13;25.40;65.80
14142;DHT22;7151;52.246;4.820;2023-05-14T13:22:39;25.40;65.60
14142;DHT22;7151;52.246;4.820;2023-05-14T13:25:05;25.40;65.20
14142;DHT22;7151;52.246;4.820;2023-05-14T13:27:31;25.50;65.20
14142;DHT22;7151;52.246;4.820;2023-05-14T13:29:57;25.50;65.10
14142;DHT22;7151;52.246;4.820;2023-05-14T13:32:24;25.50;64.60
14142;DHT22;7151;52.246;4.820;2023-05-14T13:34:49;25.60;64.60
14142;DHT22;7151;52.246;4.820;2023-05-14T13:37:15;25.60;64.60
14142;DHT22;7151;52.246;4.820;2023-05-14T13:39:41;25.60;64.90
14142;DHT22;7151;52.246;4.820;2023-05-14T13:42:06;25.60;64.70
14142;DHT22;7151;52.246;4.820;2023-05-14T13:44:32;25.70;64.80
14142;DHT22;7151;52.246;4.820;2023-05-14T13:46:57;25.70;65.00
14142;DHT22;7151;52.246;4.820;2023-05-14T13:49:23;25.80;64.90
14142;DHT22;7151;52.246;4.820;2023-05-14T13:51:48;25.80;64.40
14142;DHT22;7151;52.246;4.820;2023-05-14T13:54:14;25.80;64.20
14142;DHT22;7151;52.246;4.820;2023-05-14T13:56:39;25.80;64.10
14142;DHT22;7151;52.246;4.820;2023-05-14T13:59:05;25.80;64.30
14142;DHT22;7151;52.246;4.820;2023-05-14T14:01:31;25.80;64.50
14142;DHT22;7151;52.246;4.820;2023-05-14T14:03:57;25.90;64.60
14142;DHT22;7151;52.246;4.820;2023-05-14T14:06:22;25.90;65.10
14142;DHT22;7151;52.246;4.820;2023-05-14T14:08:48;26.00;65.80
14142;DHT22;7151;52.246;4.820;2023-05-14T14:11:13;26.00;66.50
14142;DHT22;7151;52.246;4.820;2023-05-14T14:13:39;26.00;67.10
14142;DHT22;7151;52.246;4.820;2023-05-14T14:16:05;26.10;67.30
14142;DHT22;7151;52.246;4.820;2023-05-14T14:18:31;26.10;67.50
14142;DHT22;7151;52.246;4.820;2023-05-14T14:20:57;26.20;67.50
14142;DHT22;7151;52.246;4.820;2023-05-14T14:23:22;26.20;67.30
14142;DHT22;7151;52.246;4.820;2023-05-14T14:25:48;26.30;67.40
14142;DHT22;7151;52.246;4.820;2023-05-14T14:28:14;26.30;67.70
14142;DHT22;7151;52.246;4.820;2023-05-14T14:30:39;26.40;67.80
14142;DHT22;7151;52.246;4.820;2023-05-14T14:33:05;26.40;67.90
14142;DHT22;7151;52.246;4.820;2023-05-14T14:35:31;26.50;67.90
14142;DHT22;7151;52.246;4.820;2023-05-14T14:37:57;26.50;67.80
14142;DHT22;7151;52.246;4.820;2023-05-14T14:40:23;26.60;67.80
14142;DHT22;7151;52.246;4.820;2023-05-14T14:42:50;26.60;67.20
14142;DHT22;7151;52.246;4.820;2023-05-14T14:45:16;26.60;66.50
14142;DHT22;7151;52.246;4.820;2023-05-14T14:47:45;26.60;66.30
14142;DHT22;7151;52.246;4.820;2023-05-14T14:50:14;26.60;66.60
14142;DHT22;7151;52.246;4.820;2023-05-14T14:52:40;26.60;66.80
14142;DHT22;7151;52.246;4.820;2023-05-14T14:55:08;26.60;66.70
14142;DHT22;7151;52.246;4.820;2023-05-14T14:57:34;26.60;66.30
14142;DHT22;7151;52.246;4.820;2023-05-14T15:00:00;26.60;65.80
14142;DHT22;7151;52.246;4.820;2023-05-14T15:02:25;26.60;65.80
14142;DHT22;7151;52.246;4.820;2023-05-14T15:04:52;26.60;66.00
14142;DHT22;7151;52.246;4.820;2023-05-14T15:07:19;26.60;65.90
14142;DHT22;7151;52.246;4.820;2023-05-14T15:09:46;26.60;65.70
14142;DHT22;7151;52.246;4.820;2023-05-14T15:12:12;26.60;65.40
14142;DHT22;7151;52.246;4.820;2023-05-14T15:14:38;26.50;65.00
14142;DHT22;7151;52.246;4.820;2023-05-14T15:17:04;26.50;64.90
14142;DHT22;7151;52.246;4.820;2023-05-14T15:19:29;26.40;65.00
14142;DHT22;7151;52.246;4.820;2023-05-14T15:21:56;26.30;64.80
14142;DHT22;7151;52.246;4.820;2023-05-14T15:24:22;26.30;64.90
14142;DHT22;7151;52.246;4.820;2023-05-14T15:26:49;26.20;64.70
14142;DHT22;7151;52.246;4.820;2023-05-14T15:29:15;26.10;64.70
14142;DHT22;7151;52.246;4.820;2023-05-14T15:31:40;26.00;64.90
14142;DHT22;7151;52.246;4.820;2023-05-14T15:34:06;26.00;65.00
14142;DHT22;7151;52.246;4.820;2023-05-14T15:36:31;25.90;65.00
14142;DHT22;7151;52.246;4.820;2023-05-14T15:38:58;25.90;64.70
14142;DHT22;7151;52.246;4.820;2023-05-14T15:41:24;25.80;64.60
14142;DHT22;7151;52.246;4.820;2023-05-14T15:43:50;25.70;64.50
14142;DHT22;7151;52.246;4.820;2023-05-14T15:46:16;25.70;64.60
14142;DHT22;7151;52.246;4.820;2023-05-14T15:48:41;25.70;64.60
14142;DHT22;7151;52.246;4.820;2023-05-14T15:51:07;25.70;64.50